sensor_id;sensor_type;location;lat;lon;timestamp;pressure;altitude;pressure_sealevel;temperature;humidity
50103;BME280;35993;52.604;10.078;2024-02-26T00:02:18;99883.34;;;3.19;97.84
50103;BME280;35993;52.604;10.078;2024-02-26T00:04:44;99878.84;;;3.04;97.82
50103;BME280;35993;52.604;10.078;2024-02-26T00:07:09;99883.78;;;3.01;97.91
50103;BME280;35993;52.604;10.078;2024-02-26T00:09:35;99880.31;;;3.07;98.35
50103;BME280;35993;52.604;10.078;2024-02-26T00:12:03;99883.28;;;3.12;98.17
50103;BME280;35993;52.604;10.078;2024-02-26T00:14:30;99885.25;;;3.03;97.82
50103;BME280;35993;52.604;10.078;2024-02-26T00:16:56;99876.00;;;2.91;97.76
50103;BME280;35993;52.604;10.078;2024-02-26T00:19:21;99878.41;;;3.01;98.39
50103;BME280;35993;52.604;10.078;2024-02-26T00:21:47;99873.88;;;3.01;98.19
50103;BME280;35993;52.604;10.078;2024-02-26T00:24:12;99878.41;;;3.01;97.97
50103;BME280;35993;52.604;10.078;2024-02-26T00:26:38;99886.34;;;2.94;97.85
50103;BME280;35993;52.604;10.078;2024-02-26T00:29:04;99872.13;;;2.78;97.66
50103;BME280;35993;52.604;10.078;2024-02-26T00:31:29;99882.97;;;2.70;98.81
50103;BME280;35993;52.604;10.078;2024-02-26T00:33:55;99873.16;;;2.77;99.81
50103;BME280;35993;52.604;10.078;2024-02-26T00:36:21;99877.78;;;2.84;99.58
50103;BME280;35993;52.604;10.078;2024-02-26T00:38:46;99873.25;;;2.84;99.55
50103;BME280;35993;52.604;10.078;2024-02-26T00:41:17;99870.66;;;2.76;99.01
50103;BME280;35993;52.604;10.078;2024-02-26T00:43:42;99874.47;;;2.82;99.06
50103;BME280;35993;52.604;10.078;2024-02-26T00:46:08;99867.25;;;2.82;98.89
50103;BME280;35993;52.604;10.078;2024-02-26T00:48:33;99871.78;;;2.67;98.18
50103;BME280;35993;52.604;10.078;2024-02-26T00:50:59;99868.19;;;2.59;98.67
50103;BME280;35993;52.604;10.078;2024-02-26T00:53:24;99871.31;;;2.63;99.39
50103;BME280;35993;52.604;10.078;2024-02-26T00:55:50;99873.25;;;2.69;99.60
50103;BME280;35993;52.604;10.078;2024-02-26T00:58:16;99865.22;;;2.69;99.29
50103;BME280;35993;52.604;10.078;2024-02-26T01:00:42;99874.09;;;2.70;100.00
50103;BME280;35993;52.604;10.078;2024-02-26T01:03:07;99867.53;;;2.72;100.00
50103;BME280;35993;52.604;10.078;2024-02-26T01:05:35;99863.63;;;2.75;100.00
50103;BME280;35993;52.604;10.078;2024-02-26T01:08:01;99864.69;;;2.74;99.83
50103;BME280;35993;52.604;10.078;2024-02-26T01:10:27;99863.63;;;2.75;100.00
50103;BME280;35993;52.604;10.078;2024-02-26T01:12:52;99875.56;;;2.72;100.00
50103;BME280;35993;52.604;10.078;2024-02-26T01:15:18;99872.53;;;2.75;100.00
50103;BME280;35993;52.604;10.078;2024-02-26T01:17:47;99872.13;;;2.78;100.00
50103;BME280;35993;52.604;10.078;2024-02-26T01:20:13;99874.81;;;2.78;100.00
50103;BME280;35993;52.604;10.078;2024-02-26T01:22:38;99874.09;;;2.70;100.00
50103;BME280;35993;52.604;10.078;2024-02-26T01:25:06;99873.47;;;2.68;100.00
50103;BME280;35993;52.604;10.078;2024-02-26T01:27:33;99868.72;;;2.70;100.00
50103;BME280;35993;52.604;10.078;2024-02-26T01:29:58;99865.41;;;2.68;100.00
50103;BME280;35993;52.604;10.078;2024-02-26T01:32:24;99870.13;;;2.66;100.00
50103;BME280;35993;52.604;10.078;2024-02-26T01:34:49;99873.66;;;2.66;100.00
50103;BME280;35993;52.604;10.078;2024-02-26T01:37:15;99872.16;;;2.64;100.00
50103;BME280;35993;52.604;10.078;2024-02-26T01:39:40;99869.50;;;2.64;100.00
50103;BME280;35993;52.604;10.078;2024-02-26T01:42:07;99871.25;;;2.71;100.00
50103;BME280;35993;52.604;10.078;2024-02-26T01:44:33;99869.19;;;2.73;100.00
50103;BME280;35993;52.604;10.078;2024-02-26T01:46:59;99870.47;;;2.77;100.00
50103;BME280;35993;52.604;10.078;2024-02-26T01:49:27;99864.09;;;2.78;100.00
50103;BME280;35993;52.604;10.078;2024-02-26T01:51:54;99870.94;;;2.81;100.00
50103;BME280;35993;52.604;10.078;2024-02-26T01:54:20;99861.16;;;2.73;100.00
50103;BME280;35993;52.604;10.078;2024-02-26T01:56:46;99876.50;;;2.65;100.00
50103;BME280;35993;52.604;10.078;2024-02-26T01:59:13;99884.44;;;2.73;100.00
50103;BME280;35993;52.604;10.078;2024-02-26T02:01:41;99881.97;;;2.71;100.00
50103;BME280;35993;52.604;10.078;2024-02-26T02:04:09;99880.66;;;2.67;100.00
50103;BME280;35993;52.604;10.078;2024-02-26T02:06:35;99876.59;;;2.71;100.00
50103;BME280;35993;52.604;10.078;2024-02-26T02:09:01;99874.53;;;2.73;100.00
50103;BME280;35993;52.604;10.078;2024-02-26T02:11:33;99875.41;;;2.59;100.00
50103;BME280;35993;52.604;10.078;2024-02-26T02:13:59;99880.47;;;2.54;100.00
50103;BME280;35993;52.604;10.078;2024-02-26T02:16:25;99879.28;;;2.56;100.00
50103;BME280;35993;52.604;10.078;2024-02-26T02:18:50;99881.41;;;2.46;100.00
50103;BME280;35993;52.604;10.078;2024-02-26T02:21:16;99883.91;;;2.48;100.00
50103;BME280;35993;52.604;10.078;2024-02-26T02:23:42;99893.16;;;2.60;100.00
50103;BME280;35993;52.604;10.078;2024-02-26T02:26:12;99894.63;;;2.62;100.00
50103;BME280;35993;52.604;10.078;2024-02-26T02:28:39;99884.38;;;2.51;100.00
50103;BME280;35993;52.604;10.078;2024-02-26T02:31:05;99895.16;;;2.58;100.00
50103;BME280;35993;52.604;10.078;2024-02-26T02:33:31;99897.03;;;2.57;100.00
50103;BME280;35993;52.604;10.078;2024-02-26T02:35:56;99892.47;;;2.58;100.00
50103;BME280;35993;52.604;10.078;2024-02-26T02:38:23;99895.53;;;2.55;100.00
50103;BME280;35993;52.604;10.078;2024-02-26T02:40:53;99896.19;;;2.57;100.00
50103;BME280;35993;52.604;10.078;2024-02-26T02:43:19;99890.81;;;2.57;100.00
50103;BME280;35993;52.604;10.078;2024-02-26T02:45:44;99897.38;;;2.54;100.00
50103;BME280;35993;52.604;10.078;2024-02-26T02:48:13;99891.75;;;2.49;100.00
50103;BME280;35993;52.604;10.078;2024-02-26T02:50:39;99889.91;;;2.50;100.00
50103;BME280;35993;52.604;10.078;2024-02-26T02:53:04;99886.03;;;2.52;100.00
50103;BME280;35993;52.604;10.078;2024-02-26T02:55:30;99887.59;;;2.61;100.00
50103;BME280;35993;52.604;10.078;2024-02-26T02:57:55;99887.84;;;2.52;100.00
50103;BME280;35993;52.604;10.078;2024-02-26T03:00:21;99888.13;;;2.57;100.00
50103;BME280;35993;52.604;10.078;2024-02-26T03:02:49;99885.09;;;2.60;100.00
50103;BME280;35993;52.604;10.078;2024-02-26T03:05:15;99889.81;;;2.58;100.00
50103;BME280;35993;52.604;10.078;2024-02-26T03:07:41;99891.00;;;2.55;100.00
50103;BME280;35993;52.604;10.078;2024-02-26T03:10:06;99889.91;;;2.50;100.00
50103;BME280;35993;52.604;10.078;2024-02-26T03:12:34;99896.34;;;2.40;100.00
50103;BME280;35993;52.604;10.078;2024-02-26T03:15:00;99901.44;;;2.35;100.00
50103;BME280;35993;52.604;10.078;2024-02-26T03:17:31;99906.44;;;2.38;100.00
50103;BME280;35993;52.604;10.078;2024-02-26T03:19:56;99899.41;;;2.37;100.00
50103;BME280;35993;52.604;10.078;2024-02-26T03:22:22;99907.91;;;2.41;100.00
50103;BME280;35993;52.604;10.078;2024-02-26T03:24:48;99910.50;;;2.49;100.00
50103;BME280;35993;52.604;10.078;2024-02-26T03:27:13;99910.78;;;2.54;100.00
50103;BME280;35993;52.604;10.078;2024-02-26T03:29:39;99911.97;;;2.52;100.00
50103;BME280;35993;52.604;10.078;2024-02-26T03:32:05;99911.03;;;2.29;100.00
50103;BME280;35993;52.604;10.078;2024-02-26T03:34:32;99918.06;;;2.31;100.00
50103;BME280;35993;52.604;10.078;2024-02-26T03:37:00;99920.75;;;2.45;100.00
50103;BME280;35993;52.604;10.078;2024-02-26T03:39:25;99915.00;;;2.34;100.00
50103;BME280;35993;52.604;10.078;2024-02-26T03:41:51;99910.66;;;2.33;100.00
50103;BME280;35993;52.604;10.078;2024-02-26T03:44:17;99909.88;;;2.47;100.00
50103;BME280;35993;52.604;10.078;2024-02-26T03:46:42;99914.19;;;2.48;100.00
50103;BME280;35993;52.604;10.078;2024-02-26T03:49:08;99920.66;;;2.54;100.00
50103;BME280;35993;52.604;10.078;2024-02-26T03:51:34;99920.94;;;2.59;100.00
50103;BME280;35993;52.604;10.078;2024-02-26T03:54:00;99920.47;;;2.55;100.00
50103;BME280;35993;52.604;10.078;2024-02-26T03:56:26;99927.78;;;2.46;100.00
50103;BME280;35993;52.604;10.078;2024-02-26T03:58:52;99929.97;;;2.43;100.00
50103;BME280;35993;52.604;10.078;2024-02-26T04:01:17;99925.00;;;2.40;100.00
50103;BME280;35993;52.604;10.078;2024-02-26T04:03:43;99921.56;;;2.31;100.00
50103;BME280;35993;52.604;10.078;2024-02-26T04:06:09;99928.59;;;2.32;100.00
50103;BME280;35993;52.604;10.078;2024-02-26T04:08:46;99930.44;;;2.32;100.00
50103;BME280;35993;52.604;10.078;2024-02-26T04:11:12;99930.88;;;2.35;100.00
50103;BME280;35993;52.604;10.078;2024-02-26T04:13:38;99922.97;;;2.42;100.00
50103;BME280;35993;52.604;10.078;2024-02-26T04:16:05;99921.06;;;2.51;100.00
50103;BME280;35993;52.604;10.078;2024-02-26T04:18:31;99925.50;;;2.58;100.00
50103;BME280;35993;52.604;10.078;2024-02-26T04:20:57;99923.38;;;2.69;100.00
50103;BME280;35993;52.604;10.078;2024-02-26T04:23:23;99918.81;;;2.69;100.00
50103;BME280;35993;52.604;10.078;2024-02-26T04:25:48;99922.91;;;2.65;100.00
50103;BME280;35993;52.604;10.078;2024-02-26T04:28:14;99927.97;;;2.60;100.00
50103;BME280;35993;52.604;10.078;2024-02-26T04:30:40;99925.66;;;2.57;100.00
50103;BME280;35993;52.604;10.078;2024-02-26T04:33:06;99927.03;;;2.53;100.00
50103;BME280;35993;52.604;10.078;2024-02-26T04:35:31;99929.38;;;2.56;100.00
50103;BME280;35993;52.604;10.078;2024-02-26T04:37:57;99928.25;;;2.50;100.00
50103;BME280;35993;52.604;10.078;2024-02-26T04:40:23;99933.13;;;2.46;100.00
50103;BME280;35993;52.604;10.078;2024-02-26T04:42:49;99942.66;;;2.49;100.00
50103;BME280;35993;52.604;10.078;2024-02-26T04:45:15;99938.88;;;2.58;100.00
50103;BME280;35993;52.604;10.078;2024-02-26T04:47:40;99948.03;;;2.64;100.00
50103;BME280;35993;52.604;10.078;2024-02-26T04:50:06;99944.59;;;2.55;100.00
50103;BME280;35993;52.604;10.078;2024-02-26T04:52:32;99945.53;;;2.62;100.00
50103;BME280;35993;52.604;10.078;2024-02-26T04:54:58;99953.75;;;2.76;100.00
50103;BME280;35993;52.604;10.078;2024-02-26T04:57:25;99949.88;;;2.78;100.00
50103;BME280;35993;52.604;10.078;2024-02-26T04:59:53;99952.56;;;2.78;100.00
50103;BME280;35993;52.604;10.078;2024-02-26T05:02:18;99956.56;;;2.83;100.00
50103;BME280;35993;52.604;10.078;2024-02-26T05:04:44;99954.69;;;2.83;100.00
50103;BME280;35993;52.604;10.078;2024-02-26T05:07:09;99954.16;;;2.88;100.00
50103;BME280;35993;52.604;10.078;2024-02-26T05:09:35;99959.50;;;2.88;100.00
50103;BME280;35993;52.604;10.078;2024-02-26T05:12:01;99956.44;;;2.91;100.00
50103;BME280;35993;52.604;10.078;2024-02-26T05:14:27;99960.59;;;2.93;100.00
50103;BME280;35993;52.604;10.078;2024-02-26T05:16:52;99959.19;;;2.98;100.00
50103;BME280;35993;52.604;10.078;2024-02-26T05:19:18;99966.25;;;2.99;100.00
50103;BME280;35993;52.604;10.078;2024-02-26T05:21:43;99970.94;;;2.97;100.00
50103;BME280;35993;52.604;10.078;2024-02-26T05:24:10;99974.66;;;2.95;100.00
50103;BME280;35993;52.604;10.078;2024-02-26T05:26:35;99972.16;;;2.94;100.00
50103;BME280;35993;52.604;10.078;2024-02-26T05:29:01;99972.34;;;2.92;100.00
50103;BME280;35993;52.604;10.078;2024-02-26T05:31:27;99977.97;;;2.98;100.00
50103;BME280;35993;52.604;10.078;2024-02-26T05:33:54;99979.25;;;3.02;100.00
50103;BME280;35993;52.604;10.078;2024-02-26T05:36:23;99981.50;;;2.98;100.00
50103;BME280;35993;52.604;10.078;2024-02-26T05:38:49;99990.75;;;2.95;100.00
50103;BME280;35993;52.604;10.078;2024-02-26T05:41:17;99992.38;;;2.97;100.00
50103;BME280;35993;52.604;10.078;2024-02-26T05:43:49;100004.16;;;2.95;100.00
50103;BME280;35993;52.604;10.078;2024-02-26T05:46:18;99992.13;;;2.91;100.00
50103;BME280;35993;52.604;10.078;2024-02-26T05:48:46;99994.50;;;2.86;100.00
50103;BME280;35993;52.604;10.078;2024-02-26T05:51:12;99994.72;;;2.85;100.00
50103;BME280;35993;52.604;10.078;2024-02-26T05:53:40;99999.72;;;2.88;100.00
50103;BME280;35993;52.604;10.078;2024-02-26T05:56:06;99994.78;;;2.91;100.00
50103;BME280;35993;52.604;10.078;2024-02-26T05:58:32;99995.66;;;2.92;100.00
50103;BME280;35993;52.604;10.078;2024-02-26T06:00:57;99999.81;;;2.94;100.00
50103;BME280;35993;52.604;10.078;2024-02-26T06:03:23;100011.63;;;3.00;100.00
50103;BME280;35993;52.604;10.078;2024-02-26T06:05:48;100010.63;;;3.01;100.00
50103;BME280;35993;52.604;10.078;2024-02-26T06:08:14;100008.03;;;2.93;100.00
50103;BME280;35993;52.604;10.078;2024-02-26T06:10:39;100011.00;;;2.98;100.00
50103;BME280;35993;52.604;10.078;2024-02-26T06:13:05;100016.63;;;3.03;100.00
50103;BME280;35993;52.604;10.078;2024-02-26T06:15:30;100014.59;;;3.05;100.00
50103;BME280;35993;52.604;10.078;2024-02-26T06:17:56;100011.72;;;3.07;100.00
50103;BME280;35993;52.604;10.078;2024-02-26T06:20:22;100013.56;;;3.06;100.00
50103;BME280;35993;52.604;10.078;2024-02-26T06:22:47;100013.78;;;3.05;100.00
50103;BME280;35993;52.604;10.078;2024-02-26T06:25:13;100012.47;;;3.01;100.00
50103;BME280;35993;52.604;10.078;2024-02-26T06:27:38;100015.50;;;2.98;100.00
50103;BME280;35993;52.604;10.078;2024-02-26T06:30:04;100021.53;;;3.00;100.00
50103;BME280;35993;52.604;10.078;2024-02-26T06:32:30;100028.09;;;2.97;100.00
50103;BME280;35993;52.604;10.078;2024-02-26T06:34:55;100023.84;;;3.03;100.00
50103;BME280;35993;52.604;10.078;2024-02-26T06:37:21;100026.50;;;3.03;100.00
50103;BME280;35993;52.604;10.078;2024-02-26T06:39:49;100028.00;;;3.05;100.00
50103;BME280;35993;52.604;10.078;2024-02-26T06:42:14;100033.81;;;3.09;100.00
50103;BME280;35993;52.604;10.078;2024-02-26T06:44:40;100038.66;;;3.14;100.00
50103;BME280;35993;52.604;10.078;2024-02-26T06:47:05;100042.16;;;3.14;100.00
50103;BME280;35993;52.604;10.078;2024-02-26T06:49:31;100050.00;;;3.16;100.00
50103;BME280;35993;52.604;10.078;2024-02-26T06:51:56;100054.16;;;3.18;100.00
50103;BME280;35993;52.604;10.078;2024-02-26T06:54:22;100055.03;;;3.19;100.00
50103;BME280;35993;52.604;10.078;2024-02-26T06:56:48;100058.53;;;3.19;100.00
50103;BME280;35993;52.604;10.078;2024-02-26T06:59:13;100061.00;;;3.21;100.00
50103;BME280;35993;52.604;10.078;2024-02-26T07:01:42;100072.03;;;3.26;100.00
50103;BME280;35993;52.604;10.078;2024-02-26T07:04:08;100070.47;;;3.32;100.00
50103;BME280;35993;52.604;10.078;2024-02-26T07:06:36;100080.81;;;3.35;100.00
50103;BME280;35993;52.604;10.078;2024-02-26T07:09:02;100076.94;;;3.37;100.00
50103;BME280;35993;52.604;10.078;2024-02-26T07:11:27;100080.81;;;3.35;100.00
50103;BME280;35993;52.604;10.078;2024-02-26T07:13:53;100085.25;;;3.42;100.00
50103;BME280;35993;52.604;10.078;2024-02-26T07:16:18;100084.91;;;3.46;100.00
50103;BME280;35993;52.604;10.078;2024-02-26T07:18:44;100085.38;;;3.49;100.00
50103;BME280;35993;52.604;10.078;2024-02-26T07:21:11;100092.22;;;3.52;100.00
50103;BME280;35993;52.604;10.078;2024-02-26T07:23:37;100083.78;;;3.55;100.00
50103;BME280;35993;52.604;10.078;2024-02-26T07:26:02;100086.25;;;3.56;100.00
50103;BME280;35993;52.604;10.078;2024-02-26T07:28:28;100087.13;;;3.57;100.00
50103;BME280;35993;52.604;10.078;2024-02-26T07:30:54;100084.88;;;3.60;100.00
50103;BME280;35993;52.604;10.078;2024-02-26T07:33:20;100081.81;;;3.64;100.00
50103;BME280;35993;52.604;10.078;2024-02-26T07:35:45;100085.41;;;3.71;100.00
50103;BME280;35993;52.604;10.078;2024-02-26T07:38:11;100092.16;;;3.82;100.00
50103;BME280;35993;52.604;10.078;2024-02-26T07:40:38;100091.03;;;3.91;100.00
50103;BME280;35993;52.604;10.078;2024-02-26T07:43:03;100095.38;;;3.92;100.00
50103;BME280;35993;52.604;10.078;2024-02-26T07:45:29;100087.44;;;3.84;100.00
50103;BME280;35993;52.604;10.078;2024-02-26T07:47:55;100088.47;;;3.83;100.00
50103;BME280;35993;52.604;10.078;2024-02-26T07:50:20;100091.22;;;3.89;100.00
50103;BME280;35993;52.604;10.078;2024-02-26T07:52:46;100092.75;;;3.99;100.00
50103;BME280;35993;52.604;10.078;2024-02-26T07:55:11;100099.25;;;4.04;100.00
50103;BME280;35993;52.604;10.078;2024-02-26T07:57:37;100098.84;;;4.07;100.00
50103;BME280;35993;52.604;10.078;2024-02-26T08:00:04;100098.94;;;4.14;100.00
50103;BME280;35993;52.604;10.078;2024-02-26T08:02:32;100101.50;;;4.22;100.00
50103;BME280;35993;52.604;10.078;2024-02-26T08:04:59;100098.06;;;4.29;100.00
50103;BME280;35993;52.604;10.078;2024-02-26T08:07:25;100109.69;;;4.36;100.00
50103;BME280;35993;52.604;10.078;2024-02-26T08:09:50;100106.44;;;4.40;100.00
50103;BME280;35993;52.604;10.078;2024-02-26T08:12:16;100107.53;;;4.46;100.00
50103;BME280;35993;52.604;10.078;2024-02-26T08:14:42;100117.91;;;4.49;100.00
50103;BME280;35993;52.604;10.078;2024-02-26T08:17:09;100122.28;;;4.50;100.00
50103;BME280;35993;52.604;10.078;2024-02-26T08:19:35;100116.28;;;4.55;100.00
50103;BME280;35993;52.604;10.078;2024-02-26T08:22:01;100122.94;;;4.59;100.00
50103;BME280;35993;52.604;10.078;2024-02-26T08:24:27;100118.22;;;4.61;100.00
50103;BME280;35993;52.604;10.078;2024-02-26T08:26:53;100117.56;;;4.59;100.00
50103;BME280;35993;52.604;10.078;2024-02-26T08:29:19;100125.53;;;4.67;100.00
50103;BME280;35993;52.604;10.078;2024-02-26T08:31:44;100112.09;;;4.67;100.00
50103;BME280;35993;52.604;10.078;2024-02-26T08:34:10;100116.09;;;4.78;100.00
50103;BME280;35993;52.604;10.078;2024-02-26T08:36:36;100117.38;;;4.82;100.00
50103;BME280;35993;52.604;10.078;2024-02-26T08:39:01;100117.81;;;4.86;100.00
50103;BME280;35993;52.604;10.078;2024-02-26T08:41:27;100111.22;;;4.88;100.00
50103;BME280;35993;52.604;10.078;2024-02-26T08:43:53;100115.00;;;4.94;100.00
50103;BME280;35993;52.604;10.078;2024-02-26T08:46:18;100123.75;;;5.03;100.00
50103;BME280;35993;52.604;10.078;2024-02-26T08:48:44;100118.63;;;5.08;100.00
50103;BME280;35993;52.604;10.078;2024-02-26T08:51:10;100115.16;;;5.14;100.00
50103;BME280;35993;52.604;10.078;2024-02-26T08:53:36;100115.41;;;5.19;99.57
50103;BME280;35993;52.604;10.078;2024-02-26T08:56:01;100116.88;;;5.22;99.21
50103;BME280;35993;52.604;10.078;2024-02-26T08:58:27;100126.84;;;5.28;99.28
50103;BME280;35993;52.604;10.078;2024-02-26T09:00:53;100124.41;;;5.33;99.17
50103;BME280;35993;52.604;10.078;2024-02-26T09:03:19;100123.34;;;5.34;98.63
50103;BME280;35993;52.604;10.078;2024-02-26T09:05:44;100122.34;;;5.42;97.91
50103;BME280;35993;52.604;10.078;2024-02-26T09:08:10;100128.81;;;5.48;97.48
50103;BME280;35993;52.604;10.078;2024-02-26T09:10:35;100121.81;;;5.53;97.35
50103;BME280;35993;52.604;10.078;2024-02-26T09:13:01;100123.91;;;5.58;96.94
50103;BME280;35993;52.604;10.078;2024-02-26T09:15:27;100126.59;;;5.58;95.77
50103;BME280;35993;52.604;10.078;2024-02-26T09:17:53;100128.94;;;5.68;95.92
50103;BME280;35993;52.604;10.078;2024-02-26T09:20:18;100131.66;;;5.74;95.72
50103;BME280;35993;52.604;10.078;2024-02-26T09:22:46;100127.53;;;5.79;95.77
50103;BME280;35993;52.604;10.078;2024-02-26T09:25:12;100135.03;;;5.83;95.69
50103;BME280;35993;52.604;10.078;2024-02-26T09:27:38;100141.00;;;5.79;95.00
50103;BME280;35993;52.604;10.078;2024-02-26T09:30:04;100140.22;;;5.85;94.44
50103;BME280;35993;52.604;10.078;2024-02-26T09:32:32;100142.09;;;5.91;93.25
50103;BME280;35993;52.604;10.078;2024-02-26T09:34:57;100142.53;;;5.95;93.40
50103;BME280;35993;52.604;10.078;2024-02-26T09:37:23;100142.97;;;5.98;92.75
50103;BME280;35993;52.604;10.078;2024-02-26T09:39:50;100138.88;;;6.02;92.89
50103;BME280;35993;52.604;10.078;2024-02-26T09:42:18;100140.56;;;6.10;92.77
50103;BME280;35993;52.604;10.078;2024-02-26T09:44:44;100150.28;;;6.11;92.64
50103;BME280;35993;52.604;10.078;2024-02-26T09:47:11;100152.38;;;6.16;92.34
50103;BME280;35993;52.604;10.078;2024-02-26T09:49:39;100164.25;;;6.21;92.79
50103;BME280;35993;52.604;10.078;2024-02-26T09:52:05;100155.94;;;6.23;92.45
50103;BME280;35993;52.604;10.078;2024-02-26T09:54:32;100160.50;;;6.22;91.50
50103;BME280;35993;52.604;10.078;2024-02-26T09:57:02;100159.28;;;6.32;91.74
50103;BME280;35993;52.604;10.078;2024-02-26T09:59:35;100168.63;;;6.36;91.30
50103;BME280;35993;52.604;10.078;2024-02-26T10:02:04;100167.84;;;6.42;91.52
50103;BME280;35993;52.604;10.078;2024-02-26T10:04:31;100164.72;;;6.45;91.55
50103;BME280;35993;52.604;10.078;2024-02-26T10:06:57;100174.69;;;6.45;91.27
50103;BME280;35993;52.604;10.078;2024-02-26T10:09:25;100172.00;;;6.51;91.02
50103;BME280;35993;52.604;10.078;2024-02-26T10:11:51;100172.38;;;6.48;90.73
50103;BME280;35993;52.604;10.078;2024-02-26T10:14:17;100170.53;;;6.49;90.15
50103;BME280;35993;52.604;10.078;2024-02-26T10:16:42;100163.53;;;6.61;89.96
50103;BME280;35993;52.604;10.078;2024-02-26T10:19:08;100163.09;;;6.71;90.15
50103;BME280;35993;52.604;10.078;2024-02-26T10:21:36;100163.97;;;6.78;89.97
50103;BME280;35993;52.604;10.078;2024-02-26T10:24:01;100169.16;;;6.80;89.44
50103;BME280;35993;52.604;10.078;2024-02-26T10:26:27;100173.50;;;6.87;89.36
50103;BME280;35993;52.604;10.078;2024-02-26T10:28:53;100164.81;;;6.85;88.40
50103;BME280;35993;52.604;10.078;2024-02-26T10:31:24;100166.88;;;6.90;88.75
50103;BME280;35993;52.604;10.078;2024-02-26T10:33:55;100165.63;;;6.99;87.34
50103;BME280;35993;52.604;10.078;2024-02-26T10:36:21;100155.47;;;7.01;86.31
50103;BME280;35993;52.604;10.078;2024-02-26T10:38:46;100167.28;;;7.07;86.83
50103;BME280;35993;52.604;10.078;2024-02-26T10:41:14;100176.22;;;7.14;87.36
50103;BME280;35993;52.604;10.078;2024-02-26T10:43:42;100170.00;;;7.14;86.56
50103;BME280;35993;52.604;10.078;2024-02-26T10:46:09;100162.50;;;7.16;86.50
50103;BME280;35993;52.604;10.078;2024-02-26T10:48:35;100167.31;;;7.20;86.78
50103;BME280;35993;52.604;10.078;2024-02-26T10:51:01;100169.19;;;7.20;86.75
50103;BME280;35993;52.604;10.078;2024-02-26T10:53:29;100163.16;;;7.18;86.20
50103;BME280;35993;52.604;10.078;2024-02-26T10:56:00;100165.84;;;7.25;85.92
50103;BME280;35993;52.604;10.078;2024-02-26T10:58:27;100162.53;;;7.29;84.96
50103;BME280;35993;52.604;10.078;2024-02-26T11:00:53;100162.28;;;7.37;85.22
50103;BME280;35993;52.604;10.078;2024-02-26T11:03:20;100164.16;;;7.50;84.59
50103;BME280;35993;52.604;10.078;2024-02-26T11:05:49;100156.47;;;7.54;83.02
50103;BME280;35993;52.604;10.078;2024-02-26T11:08:18;100161.03;;;7.60;83.78
50103;BME280;35993;52.604;10.078;2024-02-26T11:10:47;100162.25;;;7.64;84.10
50103;BME280;35993;52.604;10.078;2024-02-26T11:13:14;100153.53;;;7.62;82.82
50103;BME280;35993;52.604;10.078;2024-02-26T11:15:41;100153.13;;;7.59;82.14
50103;BME280;35993;52.604;10.078;2024-02-26T11:18:07;100156.84;;;7.64;82.03
50103;BME280;35993;52.604;10.078;2024-02-26T11:20:34;100158.72;;;7.64;81.34
50103;BME280;35993;52.604;10.078;2024-02-26T11:23:04;100161.19;;;7.72;81.82
50103;BME280;35993;52.604;10.078;2024-02-26T11:25:30;100170.16;;;7.73;81.43
50103;BME280;35993;52.604;10.078;2024-02-26T11:27:59;100152.47;;;7.77;81.70
50103;BME280;35993;52.604;10.078;2024-02-26T11:30:29;100149.97;;;7.75;80.92
50103;BME280;35993;52.604;10.078;2024-02-26T11:32:56;100154.53;;;7.81;80.06
50103;BME280;35993;52.604;10.078;2024-02-26T11:35:23;100153.03;;;7.92;79.20
50103;BME280;35993;52.604;10.078;2024-02-26T11:37:53;100161.56;;;7.96;80.16
50103;BME280;35993;52.604;10.078;2024-02-26T11:40:19;100166.28;;;8.00;80.40
50103;BME280;35993;52.604;10.078;2024-02-26T11:42:45;100179.00;;;8.00;80.22
50103;BME280;35993;52.604;10.078;2024-02-26T11:48:11;100171.91;;;8.06;79.13
50103;BME280;35993;52.604;10.078;2024-02-26T11:50:47;100160.66;;;8.09;78.83
50103;BME280;35993;52.604;10.078;2024-02-26T11:53:27;100168.34;;;8.18;79.20
50103;BME280;35993;52.604;10.078;2024-02-26T11:58:43;100158.75;;;8.23;77.88
50103;BME280;35993;52.604;10.078;2024-02-26T12:04:14;100167.84;;;8.28;77.66
50103;BME280;35993;52.604;10.078;2024-02-26T12:06:42;100168.66;;;8.35;77.55
50103;BME280;35993;52.604;10.078;2024-02-26T12:09:08;100163.84;;;8.37;76.79
50103;BME280;35993;52.604;10.078;2024-02-26T12:11:37;100169.69;;;8.48;77.11
50103;BME280;35993;52.604;10.078;2024-02-26T12:14:05;100167.53;;;8.57;77.29
50103;BME280;35993;52.604;10.078;2024-02-26T12:16:39;100166.47;;;8.58;76.22
50103;BME280;35993;52.604;10.078;2024-02-26T12:19:07;100166.88;;;8.61;76.73
50103;BME280;35993;52.604;10.078;2024-02-26T12:21:34;100173.09;;;8.68;76.58
50103;BME280;35993;52.604;10.078;2024-02-26T12:24:11;100178.28;;;8.70;76.00
50103;BME280;35993;52.604;10.078;2024-02-26T12:26:38;100168.31;;;8.64;75.34
50103;BME280;35993;52.604;10.078;2024-02-26T12:29:04;100181.00;;;8.70;75.62
50103;BME280;35993;52.604;10.078;2024-02-26T12:31:29;100171.66;;;8.66;74.75
50103;BME280;35993;52.604;10.078;2024-02-26T12:33:56;100174.53;;;8.71;74.98
50103;BME280;35993;52.604;10.078;2024-02-26T12:36:22;100170.78;;;8.72;75.20
50103;BME280;35993;52.604;10.078;2024-02-26T12:38:50;100173.22;;;8.80;75.50
50103;BME280;35993;52.604;10.078;2024-02-26T12:41:17;100174.59;;;8.90;75.55
50103;BME280;35993;52.604;10.078;2024-02-26T12:43:42;100166.47;;;8.90;74.59
50103;BME280;35993;52.604;10.078;2024-02-26T12:46:08;100176.22;;;8.97;74.74
50103;BME280;35993;52.604;10.078;2024-02-26T12:48:34;100174.34;;;8.98;74.76
50103;BME280;35993;52.604;10.078;2024-02-26T12:50:59;100179.31;;;9.01;74.41
50103;BME280;35993;52.604;10.078;2024-02-26T12:53:26;100173.09;;;9.00;73.88